sensor_id;sensor_type;location;lat;lon;timestamp;P1;durP1;ratioP1;P2;durP2;ratioP2
11024;SDS011;22890;51.820;8.682;2024-01-16T00:01:55;3.90;;;1.80;;
11024;SDS011;22890;51.820;8.682;2024-01-16T00:04:22;7.10;;;1.80;;
11024;SDS011;22890;51.820;8.682;2024-01-16T00:06:49;3.10;;;1.40;;
11024;SDS011;22890;51.820;8.682;2024-01-16T00:09:16;4.97;;;1.90;;
11024;SDS011;22890;51.820;8.682;2024-01-16T00:11:43;3.80;;;1.70;;
11024;SDS011;22890;51.820;8.682;2024-01-16T00:14:11;6.33;;;1.70;;
11024;SDS011;22890;51.820;8.682;2024-01-16T00:16:42;4.93;;;2.30;;
11024;SDS011;22890;51.820;8.682;2024-01-16T00:19:10;2.90;;;1.83;;
11024;SDS011;22890;51.820;8.682;2024-01-16T00:21:39;8.77;;;1.73;;
11024;SDS011;22890;51.820;8.682;2024-01-16T00:24:12;2.27;;;1.80;;
11024;SDS011;22890;51.820;8.682;2024-01-16T00:26:39;3.03;;;1.53;;
11024;SDS011;22890;51.820;8.682;2024-01-16T00:29:06;5.30;;;1.73;;
11024;SDS011;22890;51.820;8.682;2024-01-16T00:31:35;2.73;;;1.80;;
11024;SDS011;22890;51.820;8.682;2024-01-16T00:34:02;6.00;;;2.27;;
11024;SDS011;22890;51.820;8.682;2024-01-16T00:36:29;5.00;;;2.30;;
11024;SDS011;22890;51.820;8.682;2024-01-16T00:38:57;3.67;;;1.53;;
11024;SDS011;22890;51.820;8.682;2024-01-16T00:41:24;6.13;;;2.17;;
11024;SDS011;22890;51.820;8.682;2024-01-16T00:43:51;2.50;;;2.27;;
11024;SDS011;22890;51.820;8.682;2024-01-16T00:46:18;9.40;;;2.30;;
11024;SDS011;22890;51.820;8.682;2024-01-16T00:48:45;3.43;;;2.00;;
11024;SDS011;22890;51.820;8.682;2024-01-16T00:51:13;7.60;;;2.03;;
11024;SDS011;22890;51.820;8.682;2024-01-16T00:53:43;4.00;;;1.50;;
11024;SDS011;22890;51.820;8.682;2024-01-16T00:56:10;7.27;;;2.50;;
11024;SDS011;22890;51.820;8.682;2024-01-16T00:58:39;2.57;;;1.50;;
11024;SDS011;22890;51.820;8.682;2024-01-16T01:01:06;4.83;;;2.70;;
11024;SDS011;22890;51.820;8.682;2024-01-16T01:03:33;3.40;;;1.87;;
11024;SDS011;22890;51.820;8.682;2024-01-16T01:06:00;5.17;;;2.10;;
11024;SDS011;22890;51.820;8.682;2024-01-16T01:08:27;4.00;;;2.30;;
11024;SDS011;22890;51.820;8.682;2024-01-16T01:10:54;5.47;;;2.03;;
11024;SDS011;22890;51.820;8.682;2024-01-16T01:13:21;3.40;;;2.07;;
11024;SDS011;22890;51.820;8.682;2024-01-16T01:15:48;7.43;;;2.57;;
11024;SDS011;22890;51.820;8.682;2024-01-16T01:18:15;10.90;;;3.00;;
11024;SDS011;22890;51.820;8.682;2024-01-16T01:20:43;5.53;;;2.57;;
11024;SDS011;22890;51.820;8.682;2024-01-16T01:23:10;8.43;;;3.13;;
11024;SDS011;22890;51.820;8.682;2024-01-16T01:25:37;8.43;;;2.50;;
11024;SDS011;22890;51.820;8.682;2024-01-16T01:28:04;6.57;;;2.13;;
11024;SDS011;22890;51.820;8.682;2024-01-16T01:30:32;5.40;;;1.87;;
11024;SDS011;22890;51.820;8.682;2024-01-16T01:32:59;9.80;;;2.93;;
11024;SDS011;22890;51.820;8.682;2024-01-16T01:35:27;10.20;;;2.63;;
11024;SDS011;22890;51.820;8.682;2024-01-16T01:37:54;3.70;;;2.30;;
11024;SDS011;22890;51.820;8.682;2024-01-16T01:40:21;5.83;;;2.00;;
11024;SDS011;22890;51.820;8.682;2024-01-16T01:42:48;8.23;;;2.00;;
11024;SDS011;22890;51.820;8.682;2024-01-16T01:45:15;10.13;;;2.63;;
11024;SDS011;22890;51.820;8.682;2024-01-16T01:47:42;5.13;;;2.63;;
11024;SDS011;22890;51.820;8.682;2024-01-16T01:50:10;6.40;;;2.07;;
11024;SDS011;22890;51.820;8.682;2024-01-16T01:52:38;7.40;;;3.80;;
11024;SDS011;22890;51.820;8.682;2024-01-16T01:55:07;13.17;;;3.20;;
11024;SDS011;22890;51.820;8.682;2024-01-16T01:57:37;3.67;;;2.37;;
11024;SDS011;22890;51.820;8.682;2024-01-16T02:00:05;6.37;;;2.40;;
11024;SDS011;22890;51.820;8.682;2024-01-16T02:02:40;6.17;;;2.70;;
11024;SDS011;22890;51.820;8.682;2024-01-16T02:05:08;5.77;;;2.87;;
11024;SDS011;22890;51.820;8.682;2024-01-16T02:07:36;4.17;;;2.20;;
11024;SDS011;22890;51.820;8.682;2024-01-16T02:10:03;8.73;;;3.00;;
11024;SDS011;22890;51.820;8.682;2024-01-16T02:12:31;11.83;;;2.50;;
11024;SDS011;22890;51.820;8.682;2024-01-16T02:14:57;5.97;;;3.37;;
11024;SDS011;22890;51.820;8.682;2024-01-16T02:17:24;7.60;;;3.17;;
11024;SDS011;22890;51.820;8.682;2024-01-16T02:19:52;7.00;;;2.13;;
11024;SDS011;22890;51.820;8.682;2024-01-16T02:22:20;4.63;;;2.50;;
11024;SDS011;22890;51.820;8.682;2024-01-16T02:24:50;8.43;;;2.83;;
11024;SDS011;22890;51.820;8.682;2024-01-16T02:27:17;6.50;;;2.73;;
11024;SDS011;22890;51.820;8.682;2024-01-16T02:29:44;6.67;;;3.10;;
11024;SDS011;22890;51.820;8.682;2024-01-16T02:32:12;8.13;;;3.50;;
11024;SDS011;22890;51.820;8.682;2024-01-16T02:34:40;9.10;;;3.00;;
11024;SDS011;22890;51.820;8.682;2024-01-16T02:37:07;4.70;;;3.20;;
11024;SDS011;22890;51.820;8.682;2024-01-16T02:39:35;8.67;;;3.30;;
11024;SDS011;22890;51.820;8.682;2024-01-16T02:42:02;5.17;;;3.27;;
11024;SDS011;22890;51.820;8.682;2024-01-16T02:44:29;11.37;;;3.77;;
11024;SDS011;22890;51.820;8.682;2024-01-16T02:46:56;13.30;;;4.03;;
11024;SDS011;22890;51.820;8.682;2024-01-16T02:49:23;8.30;;;4.30;;
11024;SDS011;22890;51.820;8.682;2024-01-16T02:51:52;9.83;;;4.83;;
11024;SDS011;22890;51.820;8.682;2024-01-16T02:54:20;7.47;;;3.73;;
11024;SDS011;22890;51.820;8.682;2024-01-16T02:56:48;7.90;;;4.00;;
11024;SDS011;22890;51.820;8.682;2024-01-16T02:59:15;8.80;;;4.53;;
11024;SDS011;22890;51.820;8.682;2024-01-16T03:01:43;13.13;;;4.90;;
11024;SDS011;22890;51.820;8.682;2024-01-16T03:04:10;7.37;;;4.40;;
11024;SDS011;22890;51.820;8.682;2024-01-16T03:06:37;10.57;;;4.40;;
11024;SDS011;22890;51.820;8.682;2024-01-16T03:09:05;7.23;;;3.93;;
11024;SDS011;22890;51.820;8.682;2024-01-16T03:11:32;11.00;;;4.77;;
11024;SDS011;22890;51.820;8.682;2024-01-16T03:14:00;18.70;;;5.40;;
11024;SDS011;22890;51.820;8.682;2024-01-16T03:16:27;7.00;;;4.17;;
11024;SDS011;22890;51.820;8.682;2024-01-16T03:18:55;10.77;;;4.83;;
11024;SDS011;22890;51.820;8.682;2024-01-16T03:21:22;9.10;;;4.30;;
11024;SDS011;22890;51.820;8.682;2024-01-16T03:23:49;9.43;;;4.20;;
11024;SDS011;22890;51.820;8.682;2024-01-16T03:26:16;5.93;;;4.23;;
11024;SDS011;22890;51.820;8.682;2024-01-16T03:28:43;7.30;;;4.20;;
11024;SDS011;22890;51.820;8.682;2024-01-16T03:31:14;7.90;;;4.33;;
11024;SDS011;22890;51.820;8.682;2024-01-16T03:33:41;11.10;;;4.37;;
11024;SDS011;22890;51.820;8.682;2024-01-16T03:36:10;8.63;;;4.87;;
11024;SDS011;22890;51.820;8.682;2024-01-16T03:38:39;6.83;;;3.73;;
11024;SDS011;22890;51.820;8.682;2024-01-16T03:41:06;11.33;;;4.93;;
11024;SDS011;22890;51.820;8.682;2024-01-16T03:43:34;8.40;;;3.87;;
11024;SDS011;22890;51.820;8.682;2024-01-16T03:46:01;10.20;;;4.43;;
11024;SDS011;22890;51.820;8.682;2024-01-16T03:48:28;10.13;;;4.40;;
11024;SDS011;22890;51.820;8.682;2024-01-16T03:50:56;9.23;;;4.97;;
11024;SDS011;22890;51.820;8.682;2024-01-16T03:53:23;7.47;;;4.17;;
11024;SDS011;22890;51.820;8.682;2024-01-16T03:55:50;8.07;;;4.13;;
11024;SDS011;22890;51.820;8.682;2024-01-16T03:58:17;9.57;;;4.83;;
11024;SDS011;22890;51.820;8.682;2024-01-16T04:00:45;14.03;;;4.43;;
11024;SDS011;22890;51.820;8.682;2024-01-16T04:03:12;9.83;;;5.10;;
11024;SDS011;22890;51.820;8.682;2024-01-16T04:05:39;10.67;;;4.30;;
11024;SDS011;22890;51.820;8.682;2024-01-16T04:08:06;9.47;;;4.33;;
11024;SDS011;22890;51.820;8.682;2024-01-16T04:10:33;10.30;;;5.40;;
11024;SDS011;22890;51.820;8.682;2024-01-16T04:13:01;10.83;;;5.00;;
11024;SDS011;22890;51.820;8.682;2024-01-16T04:15:28;11.33;;;5.30;;
11024;SDS011;22890;51.820;8.682;2024-01-16T04:17:56;14.67;;;5.00;;
11024;SDS011;22890;51.820;8.682;2024-01-16T04:20:23;11.50;;;4.63;;
11024;SDS011;22890;51.820;8.682;2024-01-16T04:22:50;10.03;;;4.50;;
11024;SDS011;22890;51.820;8.682;2024-01-16T04:25:18;10.20;;;4.40;;
11024;SDS011;22890;51.820;8.682;2024-01-16T04:27:45;13.53;;;4.90;;
11024;SDS011;22890;51.820;8.682;2024-01-16T04:30:12;18.00;;;5.80;;
11024;SDS011;22890;51.820;8.682;2024-01-16T04:32:39;9.37;;;4.80;;
11024;SDS011;22890;51.820;8.682;2024-01-16T04:35:06;8.30;;;4.50;;
11024;SDS011;22890;51.820;8.682;2024-01-16T04:37:33;7.00;;;4.57;;
11024;SDS011;22890;51.820;8.682;2024-01-16T04:40:00;14.53;;;5.10;;
11024;SDS011;22890;51.820;8.682;2024-01-16T04:42:28;11.33;;;4.70;;
11024;SDS011;22890;51.820;8.682;2024-01-16T04:44:55;10.93;;;4.80;;
11024;SDS011;22890;51.820;8.682;2024-01-16T04:47:22;7.87;;;4.50;;
11024;SDS011;22890;51.820;8.682;2024-01-16T04:49:49;9.77;;;5.80;;
11024;SDS011;22890;51.820;8.682;2024-01-16T04:52:16;10.03;;;4.67;;
11024;SDS011;22890;51.820;8.682;2024-01-16T04:54:43;9.57;;;5.53;;
11024;SDS011;22890;51.820;8.682;2024-01-16T04:57:11;7.93;;;4.40;;
11024;SDS011;22890;51.820;8.682;2024-01-16T04:59:39;10.47;;;4.37;;
11024;SDS011;22890;51.820;8.682;2024-01-16T05:02:06;11.83;;;4.33;;
11024;SDS011;22890;51.820;8.682;2024-01-16T05:04:36;7.07;;;4.43;;
11024;SDS011;22890;51.820;8.682;2024-01-16T05:07:04;8.63;;;4.03;;
11024;SDS011;22890;51.820;8.682;2024-01-16T05:09:31;12.47;;;5.93;;
11024;SDS011;22890;51.820;8.682;2024-01-16T05:11:59;11.13;;;4.47;;
11024;SDS011;22890;51.820;8.682;2024-01-16T05:14:26;9.17;;;3.80;;
11024;SDS011;22890;51.820;8.682;2024-01-16T05:16:53;8.97;;;4.43;;
11024;SDS011;22890;51.820;8.682;2024-01-16T05:19:19;10.20;;;3.93;;
11024;SDS011;22890;51.820;8.682;2024-01-16T05:21:47;11.23;;;4.33;;
11024;SDS011;22890;51.820;8.682;2024-01-16T05:24:14;8.23;;;3.10;;
11024;SDS011;22890;51.820;8.682;2024-01-16T05:26:41;8.57;;;3.50;;
11024;SDS011;22890;51.820;8.682;2024-01-16T05:29:08;7.20;;;4.00;;
11024;SDS011;22890;51.820;8.682;2024-01-16T05:31:39;7.60;;;3.03;;
11024;SDS011;22890;51.820;8.682;2024-01-16T05:34:09;8.23;;;3.70;;
11024;SDS011;22890;51.820;8.682;2024-01-16T05:36:37;10.17;;;3.60;;
11024;SDS011;22890;51.820;8.682;2024-01-16T05:39:04;7.07;;;3.67;;
11024;SDS011;22890;51.820;8.682;2024-01-16T05:41:34;6.93;;;3.63;;
11024;SDS011;22890;51.820;8.682;2024-01-16T05:44:02;12.93;;;3.50;;
11024;SDS011;22890;51.820;8.682;2024-01-16T05:46:32;10.07;;;5.50;;
11024;SDS011;22890;51.820;8.682;2024-01-16T05:48:59;8.47;;;3.63;;
11024;SDS011;22890;51.820;8.682;2024-01-16T05:51:27;6.90;;;3.53;;
11024;SDS011;22890;51.820;8.682;2024-01-16T05:53:55;8.53;;;4.30;;
11024;SDS011;22890;51.820;8.682;2024-01-16T05:56:23;8.73;;;3.83;;
11024;SDS011;22890;51.820;8.682;2024-01-16T05:58:50;9.90;;;3.23;;
11024;SDS011;22890;51.820;8.682;2024-01-16T06:01:18;7.70;;;3.30;;
11024;SDS011;22890;51.820;8.682;2024-01-16T06:03:45;8.97;;;3.67;;
11024;SDS011;22890;51.820;8.682;2024-01-16T06:06:15;10.87;;;4.73;;
11024;SDS011;22890;51.820;8.682;2024-01-16T06:08:43;12.37;;;5.30;;
11024;SDS011;22890;51.820;8.682;2024-01-16T06:11:10;18.13;;;7.67;;
11024;SDS011;22890;51.820;8.682;2024-01-16T06:13:40;11.80;;;6.47;;
11024;SDS011;22890;51.820;8.682;2024-01-16T06:16:07;11.40;;;6.83;;
11024;SDS011;22890;51.820;8.682;2024-01-16T06:18:34;14.67;;;9.30;;
11024;SDS011;22890;51.820;8.682;2024-01-16T06:21:02;13.47;;;8.17;;
11024;SDS011;22890;51.820;8.682;2024-01-16T06:23:29;15.40;;;8.33;;
11024;SDS011;22890;51.820;8.682;2024-01-16T06:25:56;17.17;;;8.53;;
11024;SDS011;22890;51.820;8.682;2024-01-16T06:28:24;13.90;;;7.63;;
11024;SDS011;22890;51.820;8.682;2024-01-16T06:30:51;17.77;;;8.03;;
11024;SDS011;22890;51.820;8.682;2024-01-16T06:33:18;13.23;;;8.60;;
11024;SDS011;22890;51.820;8.682;2024-01-16T06:35:45;16.57;;;8.33;;
11024;SDS011;22890;51.820;8.682;2024-01-16T06:38:14;18.37;;;9.33;;
11024;SDS011;22890;51.820;8.682;2024-01-16T06:40:41;17.43;;;8.67;;
11024;SDS011;22890;51.820;8.682;2024-01-16T06:43:08;18.50;;;9.80;;
11024;SDS011;22890;51.820;8.682;2024-01-16T06:45:37;26.63;;;10.53;;
11024;SDS011;22890;51.820;8.682;2024-01-16T06:48:04;17.60;;;9.77;;
11024;SDS011;22890;51.820;8.682;2024-01-16T06:50:31;15.37;;;9.03;;
11024;SDS011;22890;51.820;8.682;2024-01-16T06:52:59;22.07;;;11.13;;
11024;SDS011;22890;51.820;8.682;2024-01-16T06:55:26;22.00;;;10.17;;
11024;SDS011;22890;51.820;8.682;2024-01-16T06:57:52;19.73;;;10.10;;
11024;SDS011;22890;51.820;8.682;2024-01-16T07:00:20;19.53;;;9.57;;
11024;SDS011;22890;51.820;8.682;2024-01-16T07:02:49;21.37;;;10.97;;
11024;SDS011;22890;51.820;8.682;2024-01-16T07:05:17;20.80;;;10.17;;
11024;SDS011;22890;51.820;8.682;2024-01-16T07:07:44;22.27;;;10.17;;
11024;SDS011;22890;51.820;8.682;2024-01-16T07:10:11;21.87;;;9.73;;
11024;SDS011;22890;51.820;8.682;2024-01-16T07:12:45;19.37;;;11.07;;
11024;SDS011;22890;51.820;8.682;2024-01-16T07:15:12;15.37;;;9.57;;
11024;SDS011;22890;51.820;8.682;2024-01-16T07:17:39;21.27;;;10.63;;
11024;SDS011;22890;51.820;8.682;2024-01-16T07:20:06;20.37;;;9.40;;
11024;SDS011;22890;51.820;8.682;2024-01-16T07:22:34;20.37;;;11.53;;
11024;SDS011;22890;51.820;8.682;2024-01-16T07:25:00;16.10;;;9.00;;
11024;SDS011;22890;51.820;8.682;2024-01-16T07:27:28;20.60;;;9.63;;
11024;SDS011;22890;51.820;8.682;2024-01-16T07:29:54;22.73;;;11.17;;
11024;SDS011;22890;51.820;8.682;2024-01-16T07:32:23;24.83;;;11.17;;
11024;SDS011;22890;51.820;8.682;2024-01-16T07:34:50;20.50;;;11.13;;
11024;SDS011;22890;51.820;8.682;2024-01-16T07:37:18;20.07;;;10.67;;
11024;SDS011;22890;51.820;8.682;2024-01-16T07:39:46;20.60;;;10.73;;
11024;SDS011;22890;51.820;8.682;2024-01-16T07:42:13;24.03;;;12.40;;
11024;SDS011;22890;51.820;8.682;2024-01-16T07:44:40;24.40;;;12.20;;
11024;SDS011;22890;51.820;8.682;2024-01-16T07:47:08;21.90;;;10.93;;
11024;SDS011;22890;51.820;8.682;2024-01-16T07:49:35;25.03;;;11.83;;
11024;SDS011;22890;51.820;8.682;2024-01-16T07:52:02;21.33;;;11.17;;
11024;SDS011;22890;51.820;8.682;2024-01-16T07:54:29;18.30;;;10.43;;
11024;SDS011;22890;51.820;8.682;2024-01-16T07:56:57;20.37;;;10.67;;
11024;SDS011;22890;51.820;8.682;2024-01-16T07:59:25;28.07;;;11.27;;
11024;SDS011;22890;51.820;8.682;2024-01-16T08:01:53;24.73;;;11.27;;
11024;SDS011;22890;51.820;8.682;2024-01-16T08:04:20;22.83;;;11.03;;
11024;SDS011;22890;51.820;8.682;2024-01-16T08:06:47;22.20;;;10.73;;
11024;SDS011;22890;51.820;8.682;2024-01-16T08:09:15;22.00;;;11.60;;
11024;SDS011;22890;51.820;8.682;2024-01-16T08:11:42;20.03;;;10.43;;
11024;SDS011;22890;51.820;8.682;2024-01-16T08:14:09;18.13;;;9.83;;
11024;SDS011;22890;51.820;8.682;2024-01-16T08:16:36;19.10;;;9.97;;
11024;SDS011;22890;51.820;8.682;2024-01-16T08:19:03;20.80;;;10.80;;
11024;SDS011;22890;51.820;8.682;2024-01-16T08:21:30;23.73;;;9.77;;
11024;SDS011;22890;51.820;8.682;2024-01-16T08:23:58;21.33;;;10.27;;
11024;SDS011;22890;51.820;8.682;2024-01-16T08:26:25;19.60;;;10.67;;
11024;SDS011;22890;51.820;8.682;2024-01-16T08:28:52;19.07;;;9.77;;
11024;SDS011;22890;51.820;8.682;2024-01-16T08:31:19;22.80;;;10.03;;
11024;SDS011;22890;51.820;8.682;2024-01-16T08:33:46;22.70;;;10.90;;
11024;SDS011;22890;51.820;8.682;2024-01-16T08:36:17;20.00;;;11.10;;
11024;SDS011;22890;51.820;8.682;2024-01-16T08:38:44;18.67;;;9.93;;
11024;SDS011;22890;51.820;8.682;2024-01-16T08:41:12;17.80;;;10.30;;
11024;SDS011;22890;51.820;8.682;2024-01-16T08:43:39;21.20;;;10.83;;
11024;SDS011;22890;51.820;8.682;2024-01-16T08:46:06;17.00;;;10.27;;
11024;SDS011;22890;51.820;8.682;2024-01-16T08:48:33;15.83;;;9.37;;
11024;SDS011;22890;51.820;8.682;2024-01-16T08:51:00;19.07;;;9.40;;
11024;SDS011;22890;51.820;8.682;2024-01-16T08:53:27;14.50;;;7.87;;
11024;SDS011;22890;51.820;8.682;2024-01-16T08:55:54;16.93;;;9.47;;
11024;SDS011;22890;51.820;8.682;2024-01-16T08:58:21;16.27;;;9.23;;
11024;SDS011;22890;51.820;8.682;2024-01-16T09:00:49;13.50;;;7.80;;
11024;SDS011;22890;51.820;8.682;2024-01-16T09:03:16;11.90;;;7.20;;
11024;SDS011;22890;51.820;8.682;2024-01-16T09:05:44;14.03;;;6.47;;
11024;SDS011;22890;51.820;8.682;2024-01-16T09:08:11;18.07;;;7.80;;
11024;SDS011;22890;51.820;8.682;2024-01-16T09:10:39;16.30;;;6.90;;
11024;SDS011;22890;51.820;8.682;2024-01-16T09:13:06;10.13;;;6.20;;
11024;SDS011;22890;51.820;8.682;2024-01-16T09:15:33;8.50;;;5.80;;
11024;SDS011;22890;51.820;8.682;2024-01-16T09:18:01;16.73;;;6.47;;
11024;SDS011;22890;51.820;8.682;2024-01-16T09:20:28;12.57;;;6.33;;
11024;SDS011;22890;51.820;8.682;2024-01-16T09:22:55;8.30;;;5.03;;
11024;SDS011;22890;51.820;8.682;2024-01-16T09:25:22;11.93;;;6.77;;
11024;SDS011;22890;51.820;8.682;2024-01-16T09:27:53;8.10;;;5.60;;
11024;SDS011;22890;51.820;8.682;2024-01-16T09:30:21;10.13;;;5.70;;
11024;SDS011;22890;51.820;8.682;2024-01-16T09:32:49;15.47;;;7.33;;
11024;SDS011;22890;51.820;8.682;2024-01-16T09:35:16;14.30;;;6.80;;
11024;SDS011;22890;51.820;8.682;2024-01-16T09:37:43;13.40;;;7.13;;
11024;SDS011;22890;51.820;8.682;2024-01-16T09:40:11;8.23;;;6.27;;
11024;SDS011;22890;51.820;8.682;2024-01-16T09:42:39;12.43;;;7.40;;
11024;SDS011;22890;51.820;8.682;2024-01-16T09:45:07;14.90;;;6.97;;
11024;SDS011;22890;51.820;8.682;2024-01-16T09:47:36;13.87;;;7.87;;
11024;SDS011;22890;51.820;8.682;2024-01-16T09:50:04;13.67;;;7.53;;
11024;SDS011;22890;51.820;8.682;2024-01-16T09:52:31;14.73;;;7.43;;
11024;SDS011;22890;51.820;8.682;2024-01-16T09:54:58;17.17;;;8.43;;
11024;SDS011;22890;51.820;8.682;2024-01-16T09:57:25;14.20;;;8.90;;
11024;SDS011;22890;51.820;8.682;2024-01-16T09:59:53;15.57;;;8.43;;
11024;SDS011;22890;51.820;8.682;2024-01-16T10:02:21;21.13;;;10.53;;
11024;SDS011;22890;51.820;8.682;2024-01-16T10:04:49;17.17;;;7.93;;
11024;SDS011;22890;51.820;8.682;2024-01-16T10:07:17;20.47;;;10.53;;
11024;SDS011;22890;51.820;8.682;2024-01-16T10:09:47;18.93;;;9.30;;
11024;SDS011;22890;51.820;8.682;2024-01-16T10:12:13;19.70;;;10.93;;
11024;SDS011;22890;51.820;8.682;2024-01-16T10:14:41;18.33;;;10.43;;
11024;SDS011;22890;51.820;8.682;2024-01-16T10:17:09;21.00;;;10.80;;
11024;SDS011;22890;51.820;8.682;2024-01-16T10:19:47;18.53;;;10.83;;
11024;SDS011;22890;51.820;8.682;2024-01-16T10:22:21;19.43;;;10.83;;
11024;SDS011;22890;51.820;8.682;2024-01-16T10:25:07;22.47;;;9.93;;
11024;SDS011;22890;51.820;8.682;2024-01-16T10:27:36;19.30;;;11.53;;
11024;SDS011;22890;51.820;8.682;2024-01-16T10:30:03;21.57;;;10.17;;
11024;SDS011;22890;51.820;8.682;2024-01-16T10:32:31;14.50;;;8.83;;
11024;SDS011;22890;51.820;8.682;2024-01-16T10:37:40;16.67;;;8.77;;
11024;SDS011;22890;51.820;8.682;2024-01-16T10:40:17;18.37;;;8.47;;
11024;SDS011;22890;51.820;8.682;2024-01-16T10:43:00;18.57;;;8.70;;
11024;SDS011;22890;51.820;8.682;2024-01-16T10:45:34;23.20;;;9.93;;
11024;SDS011;22890;51.820;8.682;2024-01-16T10:48:04;17.90;;;8.50;;
11024;SDS011;22890;51.820;8.682;2024-01-16T10:50:34;14.73;;;7.97;;
11024;SDS011;22890;51.820;8.682;2024-01-16T10:53:05;13.03;;;6.80;;
11024;SDS011;22890;51.820;8.682;2024-01-16T10:55:39;13.93;;;7.70;;
11024;SDS011;22890;51.820;8.682;2024-01-16T10:58:15;15.80;;;6.60;;
11024;SDS011;22890;51.820;8.682;2024-01-16T11:00:43;9.47;;;5.60;;
11024;SDS011;22890;51.820;8.682;2024-01-16T11:03:35;16.00;;;5.90;;
11024;SDS011;22890;51.820;8.682;2024-01-16T11:06:23;11.80;;;5.10;;
11024;SDS011;22890;51.820;8.682;2024-01-16T11:08:51;9.47;;;5.10;;
11024;SDS011;22890;51.820;8.682;2024-01-16T11:11:20;9.27;;;5.07;;
11024;SDS011;22890;51.820;8.682;2024-01-16T11:13:48;12.80;;;4.67;;
11024;SDS011;22890;51.820;8.682;2024-01-16T11:16:16;8.20;;;4.83;;
11024;SDS011;22890;51.820;8.682;2024-01-16T11:18:43;9.87;;;5.20;;
11024;SDS011;22890;51.820;8.682;2024-01-16T11:21:11;7.37;;;4.57;;
11024;SDS011;22890;51.820;8.682;2024-01-16T11:23:43;9.47;;;5.30;;
11024;SDS011;22890;51.820;8.682;2024-01-16T11:26:24;10.57;;;6.47;;
11024;SDS011;22890;51.820;8.682;2024-01-16T11:28:58;8.97;;;4.80;;
11024;SDS011;22890;51.820;8.682;2024-01-16T11:31:30;9.90;;;5.13;;
11024;SDS011;22890;51.820;8.682;2024-01-16T11:33:59;7.20;;;4.30;;
11024;SDS011;22890;51.820;8.682;2024-01-16T11:39:23;11.60;;;4.53;;
11024;SDS011;22890;51.820;8.682;2024-01-16T11:41:52;6.90;;;3.00;;
11024;SDS011;22890;51.820;8.682;2024-01-16T11:45:04;10.20;;;3.23;;
11024;SDS011;22890;51.820;8.682;2024-01-16T11:47:19;5.30;;;2.90;;
11024;SDS011;22890;51.820;8.682;2024-01-16T11:49:48;11.00;;;2.90;;
11024;SDS011;22890;51.820;8.682;2024-01-16T12:01:04;10.40;;;2.97;;
11024;SDS011;22890;51.820;8.682;2024-01-16T12:03:32;7.93;;;3.10;;
11024;SDS011;22890;51.820;8.682;2024-01-16T12:06:01;7.30;;;3.57;;
11024;SDS011;22890;51.820;8.682;2024-01-16T12:08:30;6.07;;;2.90;;
11024;SDS011;22890;51.820;8.682;2024-01-16T12:10:57;18.80;;;3.77;;
11024;SDS011;22890;51.820;8.682;2024-01-16T12:13:26;8.50;;;2.77;;
11024;SDS011;22890;51.820;8.682;2024-01-16T12:16:02;9.87;;;2.60;;
11024;SDS011;22890;51.820;8.682;2024-01-16T12:18:31;13.03;;;2.70;;
11024;SDS011;22890;51.820;8.682;2024-01-16T12:21:10;5.97;;;3.50;;
11024;SDS011;22890;51.820;8.682;2024-01-16T12:23:37;8.87;;;3.50;;
11024;SDS011;22890;51.820;8.682;2024-01-16T12:26:19;4.90;;;2.13;;
11024;SDS011;22890;51.820;8.682;2024-01-16T12:28:50;6.00;;;2.40;;
11024;SDS011;22890;51.820;8.682;2024-01-16T12:31:25;7.07;;;2.47;;
11024;SDS011;22890;51.820;8.682;2024-01-16T12:33:53;5.33;;;2.80;;
11024;SDS011;22890;51.820;8.682;2024-01-16T12:36:29;4.43;;;2.10;;
11024;SDS011;22890;51.820;8.682;2024-01-16T12:38:57;9.27;;;4.13;;
11024;SDS011;22890;51.820;8.682;2024-01-16T12:41:24;9.87;;;3.03;;
11024;SDS011;22890;51.820;8.682;2024-01-16T12:44:07;6.73;;;2.97;;
11024;SDS011;22890;51.820;8.682;2024-01-16T12:46:42;8.27;;;2.47;;
11024;SDS011;22890;51.820;8.682;2024-01-16T12:49:09;9.60;;;2.90;;
11024;SDS011;22890;51.820;8.682;2024-01-16T12:51:38;6.30;;;2.43;;
11024;SDS011;22890;51.820;8.682;2024-01-16T12:54:15;7.87;;;2.60;;
11024;SDS011;22890;51.820;8.682;2024-01-16T12:56:43;9.33;;;3.67;;
11024;SDS011;22890;51.820;8.682;2024-01-16T12:59:13;4.90;;;2.40;;
11024;SDS011;22890;51.820;8.682;2024-01-16T13:01:41;11.83;;;4.40;;
11024;SDS011;22890;51.820;8.682;2024-01-16T13:04:10;7.83;;;2.70;;
11024;SDS011;22890;51.820;8.682;2024-01-16T13:06:38;6.97;;;3.60;;
11024;SDS011;22890;51.820;8.682;2024-01-16T13:09:06;5.20;;;2.17;;
11024;SDS011;22890;51.820;8.682;2024-01-16T13:11:53;12.57;;;2.43;;
11024;SDS011;22890;51.820;8.682;2024-01-16T13:14:22;13.50;;;2.60;;
11024;SDS011;22890;51.820;8.682;2024-01-16T13:16:50;6.03;;;3.03;;
11024;SDS011;22890;51.820;8.682;2024-01-16T13:19:18;6.80;;;3.80;;
11024;SDS011;22890;51.820;8.682;2024-01-16T13:21:46;7.93;;;3.50;;
11024;SDS011;22890;51.820;8.682;2024-01-16T13:24:13;8.10;;;3.50;;
11024;SDS011;22890;51.820;8.682;2024-01-16T13:26:40;6.80;;;3.70;;
11024;SDS011;22890;51.820;8.682;2024-01-16T13:29:08;10.73;;;4.63;;
11024;SDS011;22890;51.820;8.682;2024-01-16T13:31:35;4.67;;;2.90;;
11024;SDS011;22890;51.820;8.682;2024-01-16T13:34:03;9.73;;;2.40;;
11024;SDS011;22890;51.820;8.682;2024-01-16T13:36:30;10.20;;;3.10;;
11024;SDS011;22890;51.820;8.682;2024-01-16T13:39:18;7.87;;;3.03;;
11024;SDS011;22890;51.820;8.682;2024-01-16T13:41:46;8.53;;;2.37;;
11024;SDS011;22890;51.820;8.682;2024-01-16T13:44:13;7.83;;;2.20;;
11024;SDS011;22890;51.820;8.682;2024-01-16T13:46:40;5.30;;;3.23;;
11024;SDS011;22890;51.820;8.682;2024-01-16T13:49:26;5.67;;;2.77;;
11024;SDS011;22890;51.820;8.682;2024-01-16T13:51:54;6.63;;;2.03;;
11024;SDS011;22890;51.820;8.682;2024-01-16T13:54:21;8.97;;;3.07;;
11024;SDS011;22890;51.820;8.682;2024-01-16T13:56:48;7.20;;;3.93;;
11024;SDS011;22890;51.820;8.682;2024-01-16T13:59:32;7.60;;;2.77;;
11024;SDS011;22890;51.820;8.682;2024-01-16T14:01:59;7.27;;;2.97;;
11024;SDS011;22890;51.820;8.682;2024-01-16T14:04:27;8.97;;;3.10;;
11024;SDS011;22890;51.820;8.682;2024-01-16T14:06:54;5.93;;;2.70;;
11024;SDS011;22890;51.820;8.682;2024-01-16T14:09:38;6.00;;;2.80;;
11024;SDS011;22890;51.820;8.682;2024-01-16T14:12:07;6.33;;;2.53;;
11024;SDS011;22890;51.820;8.682;2024-01-16T14:14:35;6.00;;;3.00;;
11024;SDS011;22890;51.820;8.682;2024-01-16T14:17:04;6.37;;;2.63;;
11024;SDS011;22890;51.820;8.682;2024-01-16T14:19:31;7.43;;;3.97;;
11024;SDS011;22890;51.820;8.682;2024-01-16T14:22:01;9.87;;;3.23;;
11024;SDS011;22890;51.820;8.682;2024-01-16T14:24:28;8.77;;;3.73;;
11024;SDS011;22890;51.820;8.682;2024-01-16T14:26:55;6.27;;;2.53;;
11024;SDS011;22890;51.820;8.682;2024-01-16T14:29:25;4.40;;;2.63;;
11024;SDS011;22890;51.820;8.682;2024-01-16T14:31:53;13.77;;;3.63;;
11024;SDS011;22890;51.820;8.682;2024-01-16T14:34:23;10.63;;;5.47;;
11024;SDS011;22890;51.820;8.682;2024-01-16T14:36:50;8.57;;;5.10;;
11024;SDS011;22890;51.820;8.682;2024-01-16T14:39:17;8.47;;;3.83;;
11024;SDS011;22890;51.820;8.682;2024-01-16T14:41:50;9.40;;;3.20;;
11024;SDS011;22890;51.820;8.682;2024-01-16T14:44:21;15.63;;;4.10;;
11024;SDS011;22890;51.820;8.682;2024-01-16T14:46:48;6.60;;;2.80;;
11024;SDS011;22890;51.820;8.682;2024-01-16T14:49:19;5.73;;;2.40;;
11024;SDS011;22890;51.820;8.682;2024-01-16T14:51:47;10.37;;;3.40;;
11024;SDS011;22890;51.820;8.682;2024-01-16T14:54:14;6.83;;;3.50;;
11024;SDS011;22890;51.820;8.682;2024-01-16T14:56:41;8.33;;;3.70;;
11024;SDS011;22890;51.820;8.682;2024-01-16T14:59:08;5.57;;;3.40;;
11024;SDS011;22890;51.820;8.682;2024-01-16T15:01:40;12.57;;;4.27;;
11024;SDS011;22890;51.820;8.682;2024-01-16T15:04:07;6.23;;;3.47;;